createdAt,value
2017-09-20T19:53:36.774Z,15.86
2017-09-20T19:54:45.607Z,15.87
2017-09-20T19:55:55.199Z,15.89
2017-09-20T19:57:04.036Z,15.9
2017-09-20T19:58:12.874Z,15.89
2017-09-20T19:59:21.712Z,15.84
2017-09-20T20:00:30.552Z,15.89
2017-09-20T20:01:39.711Z,15.86
2017-09-20T20:02:48.584Z,15.93
2017-09-20T20:03:57.580Z,15.9
2017-09-20T20:05:07.068Z,15.89
2017-09-20T20:06:15.956Z,15.9
2017-09-20T20:07:24.789Z,15.92
2017-09-20T20:08:33.689Z,15.87
2017-09-20T20:09:42.579Z,15.87
2017-09-20T20:10:51.411Z,15.92
2017-09-20T20:12:00.270Z,15.93
2017-09-20T20:13:09.083Z,15.89
2017-09-20T20:14:17.925Z,15.89
2017-09-20T20:15:26.834Z,15.93
2017-09-20T20:16:35.946Z,15.9
2017-09-20T20:17:45.105Z,15.92
2017-09-20T20:18:53.940Z,15.9
2017-09-20T20:20:02.773Z,15.84
2017-09-20T20:21:12.017Z,15.87
2017-09-20T20:22:20.857Z,15.89
2017-09-20T20:23:30.482Z,15.94
2017-09-20T20:24:39.349Z,15.86
2017-09-20T20:25:48.185Z,15.92
2017-09-20T20:26:57.394Z,15.92
2017-09-20T20:28:06.384Z,15.9
2017-09-20T20:29:15.263Z,15.83
2017-09-20T20:30:24.105Z,15.93
2017-09-20T20:31:32.979Z,15.87
2017-09-20T20:32:41.936Z,15.9
2017-09-20T20:33:50.776Z,15.86
2017-09-20T20:34:59.613Z,15.9
2017-09-20T20:36:08.486Z,15.89
2017-09-20T20:37:17.507Z,15.86
2017-09-20T20:38:26.880Z,15.9
2017-09-20T20:39:35.752Z,15.92
2017-09-20T20:40:44.692Z,15.84
2017-09-20T20:41:53.528Z,15.96
2017-09-20T20:43:02.362Z,16
2017-09-20T20:44:11.204Z,15.97
2017-09-20T20:45:20.111Z,15.89
2017-09-20T20:46:28.951Z,16.01
2017-09-20T20:47:37.789Z,15.94
2017-09-20T20:48:46.908Z,15.97
2017-09-20T20:49:55.745Z,15.94
2017-09-20T20:51:04.575Z,16.02
2017-09-20T20:52:13.755Z,15.94
2017-09-20T20:53:22.593Z,16.01
2017-09-20T20:54:31.426Z,15.96
2017-09-20T20:55:40.265Z,15.97
2017-09-20T20:56:49.311Z,15.94
2017-09-20T20:57:58.147Z,15.92
2017-09-20T20:59:06.987Z,15.94
2017-09-20T21:00:15.823Z,16.02
2017-09-20T21:01:24.664Z,15.94
2017-09-20T21:02:33.500Z,16.01
2017-09-20T21:03:42.509Z,15.94
2017-09-20T21:04:51.340Z,16.01
2017-09-20T21:06:00.180Z,16.02
2017-09-20T21:07:09.015Z,15.94
2017-09-20T21:08:17.850Z,15.96
2017-09-20T21:09:26.691Z,15.93
2017-09-20T21:10:35.525Z,15.89
2017-09-20T21:11:44.477Z,15.92
2017-09-20T21:12:53.386Z,15.94
2017-09-20T21:14:02.258Z,16.04
2017-09-20T21:15:11.418Z,15.89
2017-09-20T21:16:20.657Z,15.9
2017-09-20T21:17:29.502Z,15.89
2017-09-20T21:18:38.639Z,15.86
2017-09-20T21:19:47.493Z,15.89
2017-09-20T21:20:56.329Z,15.89
2017-09-20T21:22:05.167Z,15.86
2017-09-20T21:23:14.007Z,15.87
2017-09-20T21:24:22.847Z,15.86
2017-09-20T21:25:31.686Z,15.9
2017-09-20T21:26:40.523Z,15.93
2017-09-20T21:27:49.724Z,15.86
2017-09-20T21:28:58.560Z,15.89
2017-09-20T21:30:07.400Z,15.86
2017-09-20T21:31:16.246Z,15.89
2017-09-20T21:32:25.101Z,15.9
2017-09-20T21:33:33.941Z,15.87
2017-09-20T21:34:42.770Z,15.86
2017-09-20T21:35:51.724Z,15.89
2017-09-20T21:37:00.754Z,15.82
2017-09-20T21:38:09.747Z,15.87
2017-09-20T21:39:18.582Z,15.84
2017-09-20T21:40:27.413Z,15.9
2017-09-20T21:41:36.252Z,15.82
2017-09-20T21:42:45.092Z,15.78
2017-09-20T21:43:53.934Z,15.87
2017-09-20T21:45:02.770Z,15.86
2017-09-20T21:46:11.605Z,15.76
2017-09-20T21:47:20.444Z,15.82
2017-09-20T21:48:29.279Z,15.84
2017-09-20T21:49:38.117Z,15.78
2017-09-20T21:50:47.040Z,15.87
2017-09-20T21:51:55.874Z,15.86
2017-09-20T21:53:04.742Z,15.86
2017-09-20T21:54:13.582Z,15.86
2017-09-20T21:55:22.571Z,15.72
2017-09-20T21:56:31.445Z,15.82
2017-09-20T21:57:40.732Z,15.75
2017-09-20T21:58:49.570Z,15.8
2017-09-20T21:59:58.843Z,15.82
2017-09-20T22:01:07.684Z,15.78
2017-09-20T22:02:16.548Z,15.82
2017-09-20T22:03:25.386Z,15.72
2017-09-20T22:04:34.229Z,15.8
2017-09-20T22:05:43.380Z,15.72
2017-09-20T22:06:52.218Z,15.82
2017-09-20T22:08:01.057Z,15.74
2017-09-20T22:09:10.038Z,15.75
2017-09-20T22:10:18.888Z,15.74
2017-09-20T22:11:27.795Z,15.72
2017-09-20T22:12:36.631Z,15.78
2017-09-20T22:13:45.468Z,15.71
2017-09-20T22:14:54.307Z,15.78
2017-09-20T22:16:03.215Z,15.78
2017-09-20T22:17:12.053Z,15.75
2017-09-20T22:18:20.893Z,15.74
2017-09-20T22:19:29.856Z,15.74
2017-09-20T22:20:38.698Z,15.69
2017-09-20T22:21:47.534Z,15.76
2017-09-20T22:22:56.615Z,15.69
2017-09-20T22:24:05.873Z,15.72
2017-09-20T22:25:14.708Z,15.74
2017-09-20T22:26:23.869Z,15.68
2017-09-20T22:27:33.030Z,15.69
2017-09-20T22:28:42.197Z,15.72
2017-09-20T22:29:51.031Z,15.69
2017-09-20T22:30:59.871Z,15.75
2017-09-20T22:32:08.709Z,15.69
2017-09-20T22:33:17.920Z,15.72
2017-09-20T22:34:26.844Z,15.71
2017-09-20T22:35:35.680Z,15.69
2017-09-20T22:36:44.578Z,15.69
2017-09-20T22:37:53.456Z,15.69
2017-09-20T22:39:02.332Z,15.71
2017-09-20T22:40:11.561Z,15.69
2017-09-20T22:41:20.590Z,15.71
2017-09-20T22:42:29.757Z,15.67
2017-09-20T22:43:38.592Z,15.74
2017-09-20T22:44:47.473Z,15.69
2017-09-20T22:45:56.346Z,15.71
2017-09-20T22:47:05.183Z,15.67
2017-09-20T22:48:14.021Z,15.56
2017-09-20T22:49:22.923Z,15.68
2017-09-20T22:50:31.807Z,15.57
2017-09-20T22:51:40.862Z,15.64
2017-09-20T22:52:49.718Z,15.69
2017-09-20T22:53:58.731Z,15.6
2017-09-20T22:55:07.896Z,15.57
2017-09-20T22:56:16.737Z,15.6
2017-09-20T22:57:25.584Z,15.74
2017-09-20T22:58:34.418Z,15.69
2017-09-20T22:59:43.258Z,15.62
2017-09-20T23:00:52.151Z,15.69
2017-09-20T23:02:01.339Z,15.68
2017-09-20T23:03:10.429Z,15.69
2017-09-20T23:04:19.660Z,15.64
2017-09-20T23:05:28.819Z,15.67
2017-09-20T23:06:37.809Z,15.62
2017-09-20T23:07:47.204Z,15.54
2017-09-20T23:08:56.041Z,15.53
2017-09-20T23:10:04.881Z,15.54
2017-09-20T23:11:13.720Z,15.62
2017-09-20T23:12:23.010Z,15.59
2017-09-20T23:13:31.847Z,15.59
2017-09-20T23:14:40.874Z,15.57
2017-09-20T23:15:50.060Z,15.49
2017-09-20T23:16:58.900Z,15.49
2017-09-20T23:18:07.741Z,15.59
2017-09-20T23:19:16.574Z,15.56
2017-09-20T23:20:25.412Z,15.57
2017-09-20T23:21:34.251Z,15.62
2017-09-20T23:22:43.084Z,15.5
2017-09-20T23:23:51.925Z,15.59
2017-09-20T23:25:01.123Z,15.53
2017-09-20T23:26:10.339Z,15.56
2017-09-20T23:27:20.156Z,15.57
2017-09-20T23:28:29.021Z,15.56
2017-09-20T23:29:38.138Z,15.53
2017-09-20T23:30:47.071Z,15.59
2017-09-20T23:31:56.000Z,15.51
2017-09-20T23:33:05.282Z,15.59
2017-09-20T23:34:14.137Z,15.54
2017-09-20T23:35:22.972Z,15.59
2017-09-20T23:36:31.804Z,15.6
2017-09-20T23:37:41.030Z,15.47
2017-09-20T23:38:50.130Z,15.53
2017-09-20T23:39:59.297Z,15.46
2017-09-20T23:41:08.846Z,15.51
2017-09-20T23:42:17.727Z,15.56
2017-09-20T23:43:26.921Z,15.49
2017-09-20T23:44:36.193Z,15.49
2017-09-20T23:45:45.594Z,15.44
2017-09-20T23:46:54.939Z,15.46
2017-09-20T23:48:03.839Z,15.44
2017-09-20T23:49:13.273Z,15.51
2017-09-20T23:50:22.294Z,15.5
2017-09-20T23:51:31.645Z,15.44
2017-09-20T23:52:40.548Z,15.47
2017-09-20T23:53:49.610Z,15.47
2017-09-20T23:54:58.860Z,15.5
2017-09-20T23:56:08.090Z,15.47
2017-09-20T23:57:17.728Z,15.5
2017-09-20T23:58:26.902Z,15.47
2017-09-20T23:59:35.735Z,15.47
